Station: South Johnstone  

  Atmospheric Gas Attenuation - ITU Rec 676-11   ----------------- dB/100km -----------------
Date Time Temp RH % AH g/m3 Dew Point Wind Direction Speed kph Gust kph Barometer mB Rainfall Since 9am 24GHz 47GHz 76GHz 122GHz 134GHz 241GHz
08/05 12:30 25.9 75 18.16 21.1 15 28 1015.5 0 39.1 38.1 72.5 191.8 209.7 728.5
08/05 12:20 26 78 18.99 21.9 11 15 1015.5 0 40.8 39.6 76.3 201.7 222.0 771.1
08/05 12:10 25.5 77 18.23 21.2 19 26 1015.6 0 39.3 38.5 73.2 193.7 211.9 736.1
08/05 12:00 25.4 75 17.66 20.6 15 24 1015.8 0 38.1 37.5 70.7 187.0 203.7 707.5
08/05 11:50 25.2 79 18.39 21.3 9 11 1015.9 0 39.6 38.9 74.3 196.5 215.2 747.6
08/05 11:40 25.2 80 18.62 21.5 7 11 1016 0 40.1 39.3 75.4 199.3 218.8 759.8
08/05 11:30 25.3 79 18.49 21.4 13 24 1016.2 0 39.8 39.1 74.7 197.5 216.5 752.0
08/05 11:20 25.3 79 18.49 21.4 11 17 1016.2 0 39.8 39.1 74.7 197.5 216.5 752.0
08/05 11:10 25.3 81 18.96 21.8 15 19 1016.3 0 40.8 40.0 76.9 203.4 223.7 777.1
08/05 11:00 24.6 84 18.91 21.7 11 19 1016.5 0 40.8 40.2 77.4 204.7 225.1 781.8
08/05 10:50 24.7 84 19.01 21.8 9 13 1016.5 0 41.0 40.3 77.8 205.6 226.3 786.1
08/05 10:40 25.2 80 18.62 21.5 13 17 1016.7 0 40.1 39.4 75.4 199.4 218.9 760.2
08/05 10:30 25.6 80 19.05 21.9 20 22 1016.8 0 41.0 40.0 77.0 203.8 224.3 779.1
08/05 10:20 26 82 19.96 22.7 13 15 1016.8 0 42.9 41.5 80.9 214.2 237.1 823.9
08/05 10:10 25.5 83 19.65 22.4 13 17 1016.7 0 42.3 41.2 80.0 211.6 233.9 812.4
08/05 10:00 25.4 84 19.78 22.5 11 20 1016.8 0 42.6 41.5 80.7 213.6 236.2 820.6
08/05 09:50 24.9 90 20.6 23.1 6 9 1016.7 0 44.4 43.4 85.3 225.6 250.9 871.6
08/05 09:40 24 89 19.36 22.1 11 13 1016.8 0 41.8 41.4 80.2 212.1 234.0 812.8
08/05 09:30 23.4 94 19.76 22.4 4 9 1016.9 0 42.7 42.5 82.8 219.1 242.4 841.7
08/05 09:20 22.7 95 19.19 21.9 0 0 1016.7 0 41.6 41.7 80.7 213.6 235.4 817.5
08/05 09:10 22.5 95 18.97 21.7 2 6 1016.6 0 41.1 41.4 79.9 211.2 232.5 807.3
08/05 09:00 22.1 95 18.54 21.3 2 11 1016.4 0 40.3 40.7 78.2 206.7 226.9 787.5
08/05 08:50 22 95 18.44 21.2 0 0 1016.5 1 40.1 40.6 77.8 205.7 225.6 783.1
08/05 08:40 21.7 95 18.12 20.9 0 0 1016.3 0.8 39.4 40.1 76.5 202.3 221.4 768.4
08/05 08:30 21.6 96 18.21 20.9 0 0 1016.3 0.8 39.6 40.3 77.1 203.8 223.1 774.4
08/05 08:20 21.4 96 18 20.7 0 0 1016 0.8 39.2 40.0 76.2 201.6 220.3 764.7
08/05 08:10 21.2 96 17.79 20.5 0 0 1015.9 0.8 38.7 39.6 75.4 199.4 217.6 755.0
08/05 08:00 21 96 17.58 20.3 0 0 1015.9 0.8 38.3 39.3 74.6 197.2 214.8 745.5
08/05 07:50 20.9 96 17.48 20.2 0 0 1015.6 0.8 38.1 39.2 74.2 196.1 213.5 740.8
08/05 07:40 20.7 96 17.28 20 0 0 1015.6 0.8 37.7 38.9 73.4 194.1 210.9 731.8
08/05 07:30 20.5 96 17.08 19.8 0 0 1015.5 0.8 37.3 38.6 72.6 192.0 208.3 722.8
08/05 07:20 20.3 96 16.88 19.6 0 2 1015.3 0.8 36.9 38.3 71.9 189.9 205.7 713.7
08/05 07:10 20.1 96 16.69 19.4 0 0 1015.2 0.6 36.5 38.0 71.1 188.0 203.3 705.2
08/05 07:00 20 96 16.59 19.3 2 7 1015.3 0.6 36.3 37.9 70.8 187.0 202.0 700.7
08/05 06:50 19.9 96 16.49 19.2 6 7 1015.1 0.6 36.1 37.7 70.4 185.9 200.7 696.1
08/05 06:40 19.7 96 16.3 19 0 0 1015 0.6 35.7 37.4 69.6 184.0 198.2 687.6
08/05 06:30 19.7 96 16.3 19 0 0 1015 0.6 35.7 37.4 69.6 184.0 198.2 687.6
08/05 06:20 19.6 96 16.2 18.9 0 4 1014.8 0.6 35.5 37.3 69.2 182.9 196.9 683.0
08/05 06:10 19.6 96 16.2 18.9 0 0 1014.7 0.6 35.5 37.3 69.2 182.9 196.9 683.0
08/05 06:00 19.6 96 16.2 18.9 7 11 1014.7 0.6 35.5 37.3 69.2 182.9 196.9 683.0
08/05 05:50 19.7 96 16.3 19 7 11 1014.4 0.6 35.7 37.4 69.6 183.9 198.1 687.3
08/05 05:40 19.7 96 16.3 19 7 9 1014.4 0.6 35.7 37.4 69.6 183.9 198.1 687.3
08/05 05:30 19.6 96 16.2 18.9 7 13 1014.5 0.6 35.5 37.3 69.2 182.9 196.9 682.9
08/05 05:20 19.5 96 16.11 18.8 7 11 1014.2 0.6 35.3 37.1 68.9 182.0 195.7 678.8
08/05 05:10 19.5 96 16.11 18.8 6 7 1014.1 0.6 35.3 37.1 68.9 181.9 195.7 678.7
08/05 05:00 19.5 96 16.11 18.8 6 11 1014.1 0.6 35.3 37.1 68.9 181.9 195.7 678.7
08/05 04:50 19.5 96 16.11 18.8 4 9 1014.1 0.6 35.3 37.1 68.9 181.9 195.7 678.7
08/05 04:40 19.5 96 16.11 18.8 0 7 1014.1 0.6 35.3 37.1 68.9 181.9 195.7 678.7
08/05 04:30 19.5 96 16.11 18.8 4 11 1014.2 0.6 35.3 37.1 68.9 182.0 195.7 678.8
08/05 04:20 19.5 96 16.11 18.8 4 7 1013.9 0.6 35.3 37.1 68.8 181.9 195.7 678.6
08/05 04:10 19.5 96 16.11 18.8 9 13 1013.9 0.6 35.3 37.1 68.8 181.9 195.7 678.6
08/05 04:00 19.4 96 16.02 18.7 2 9 1013.9 0.6 35.1 37.0 68.5 181.0 194.5 674.7
08/05 03:50 19.5 96 16.11 18.8 0 0 1013.7 0.6 35.3 37.1 68.8 181.9 195.6 678.5
08/05 03:40 19.6 96 16.2 18.9 2 7 1013.8 0.6 35.5 37.2 69.2 182.8 196.8 682.5
08/05 03:30 19.7 96 16.3 19 4 9 1013.9 0.6 35.7 37.4 69.6 183.8 198.1 687.1
08/05 03:20 19.7 96 16.3 19 7 7 1013.8 0.6 35.7 37.4 69.6 183.8 198.1 687.0
08/05 03:10 19.7 96 16.3 19 6 7 1013.8 0.6 35.7 37.4 69.6 183.8 198.1 687.0
08/05 03:00 19.8 96 16.4 19.1 4 11 1013.9 0.6 35.9 37.5 69.9 184.8 199.4 691.6
08/05 02:50 19.9 96 16.49 19.2 2 6 1013.9 0.6 36.1 37.7 70.3 185.7 200.5 695.5
08/05 02:40 19.8 95 16.23 19 4 6 1014 0.6 35.5 37.2 69.1 182.7 196.7 682.4
08/05 02:30 19.9 96 16.49 19.2 6 11 1014.1 0.6 36.1 37.7 70.3 185.8 200.5 695.6
08/05 02:20 19.9 96 16.49 19.2 0 4 1014.1 0.6 36.1 37.7 70.3 185.8 200.5 695.6
08/05 02:10 19.9 95 16.32 19.1 6 9 1014.1 0.6 35.7 37.3 69.5 183.6 197.9 686.4
08/05 02:00 20 96 16.59 19.3 0 4 1014.3 0.6 36.3 37.8 70.7 186.8 201.8 700.2
08/05 01:50 20.2 96 16.78 19.5 0 0 1014.1 0.6 36.7 38.1 71.4 188.7 204.2 708.6
08/05 01:40 20.3 96 16.88 19.6 0 0 1014.3 0.6 36.9 38.2 71.8 189.8 205.5 713.2
08/05 01:30 20.3 96 16.88 19.6 2 7 1014.5 0.6 36.9 38.2 71.8 189.8 205.6 713.3
08/05 01:20 20.3 96 16.88 19.6 0 0 1014.4 0.6 36.9 38.2 71.8 189.8 205.6 713.2
08/05 01:10 20.3 96 16.88 19.6 0 0 1014.5 0.6 36.9 38.2 71.8 189.8 205.6 713.3
08/05 01:00 20.4 96 16.98 19.7 6 9 1014.6 0.6 37.1 38.4 72.2 190.8 206.9 717.8
08/05 00:50 20.5 96 17.08 19.8 6 7 1014.6 0.6 37.3 38.5 72.6 191.9 208.2 722.3
08/05 00:40 20.5 95 16.9 19.7 7 9 1014.6 0.6 36.9 38.2 71.7 189.6 205.3 712.5
08/05 00:30 20.5 95 16.9 19.7 9 11 1014.8 0.6 36.9 38.2 71.7 189.6 205.4 712.6
08/05 00:20 20.6 96 17.18 19.9 9 11 1014.7 0.6 37.5 38.7 73.0 192.9 209.5 726.9
08/05 00:10 20.7 96 17.28 20 7 9 1014.8 0.6 37.7 38.8 73.4 193.9 210.8 731.4
08/05 00:00 20.8 96 17.38 20.1 6 9 1014.9 0.6 37.9 39.0 73.8 195.0 212.1 736.0
07/05 23:50 21 96 17.58 20.3 0 4 1014.9 0.6 38.3 39.3 74.5 197.0 214.7 745.0
07/05 23:40 20.9 96 17.48 20.2 6 7 1014.9 0.6 38.1 39.1 74.1 196.0 213.4 740.5
07/05 23:30 21 96 17.58 20.3 7 11 1015.1 0.6 38.3 39.3 74.5 197.1 214.7 745.1
07/05 23:20 21 96 17.58 20.3 6 7 1015.1 0.6 38.3 39.3 74.5 197.1 214.7 745.1
07/05 23:10 21 96 17.58 20.3 11 15 1015 0.6 38.3 39.3 74.5 197.0 214.7 745.0
07/05 23:00 21.1 96 17.69 20.4 9 13 1015.2 0.6 38.5 39.5 75.0 198.2 216.2 750.2
07/05 22:50 21.1 95 17.5 20.3 9 13 1015.2 0.6 38.1 39.1 74.1 195.8 213.2 739.7
07/05 22:40 21.2 96 17.79 20.5 6 7 1015.3 0.6 38.8 39.6 75.4 199.3 217.5 754.7
07/05 22:30 21.3 96 17.89 20.6 7 13 1015.5 0.6 39.0 39.8 75.8 200.3 218.8 759.3
07/05 22:20 21.3 95 17.71 20.5 9 11 1015.4 0.6 38.6 39.4 74.9 198.0 215.9 749.4
07/05 22:10 21.4 96 18 20.7 9 11 1015.5 0.6 39.2 39.9 76.2 201.5 220.2 764.4
07/05 22:00 21.5 96 18.1 20.8 9 13 1015.6 0.6 39.4 40.1 76.6 202.5 221.5 769.0
07/05 21:50 21.6 95 18.02 20.8 9 9 1015.5 0.6 39.2 39.9 76.1 201.2 220.0 763.5
07/05 21:40 21.7 95 18.12 20.9 7 9 1015.5 0.6 39.4 40.0 76.5 202.2 221.2 768.0
07/05 21:30 21.7 95 18.12 20.9 7 9 1015.7 0.6 39.4 40.0 76.5 202.3 221.3 768.1
07/05 21:20 21.9 95 18.33 21.1 6 9 1015.7 0.6 39.8 40.4 77.3 204.4 224.0 777.6
07/05 21:10 22 95 18.44 21.2 2 6 1015.7 0.6 40.1 40.5 77.7 205.6 225.5 782.7
07/05 21:00 22.1 95 18.54 21.3 7 9 1015.8 0.6 40.3 40.7 78.1 206.6 226.8 787.2
07/05 20:50 22.2 95 18.65 21.4 7 9 1015.6 0.6 40.5 40.8 78.6 207.7 228.2 792.1
07/05 20:40 22.3 95 18.76 21.5 9 11 1015.6 0.6 40.7 41.0 79.0 208.9 229.6 797.2
07/05 20:30 22.4 94 18.67 21.4 9 9 1015.6 0.6 40.5 40.8 78.4 207.5 227.9 791.1
07/05 20:20 22.5 94 18.77 21.5 7 9 1015.5 0.6 40.7 40.9 78.8 208.5 229.1 795.6
07/05 20:10 22.6 94 18.88 21.6 9 11 1015.4 0.6 40.9 41.1 79.2 209.6 230.6 800.6
07/05 20:00 22.8 93 18.9 21.6 7 9 1015.4 0.6 41.0 41.0 79.1 209.3 230.3 799.5

Last Refresh: 08-May-2026 12:08:50

Bureau of Meteorology